createdAt,value
2023-03-21T00:01:06.617Z,3.43
2023-03-21T00:03:35.297Z,2.77
2023-03-21T00:06:07.442Z,2.77
2023-03-21T00:08:35.479Z,3.77
2023-03-21T00:11:05.894Z,3.70
2023-03-21T00:13:38.453Z,3.33
2023-03-21T00:16:10.462Z,2.80
2023-03-21T00:18:48.556Z,3.07
2023-03-21T00:24:07.897Z,3.37
2023-03-21T00:26:36.022Z,3.30
2023-03-21T00:29:06.557Z,3.63
2023-03-21T00:31:34.500Z,3.13
2023-03-21T00:34:02.576Z,3.30
2023-03-21T00:36:30.433Z,3.83
2023-03-21T00:38:58.436Z,3.80
2023-03-21T00:41:41.357Z,4.17
2023-03-21T00:44:13.688Z,4.20
2023-03-21T00:46:51.570Z,3.90
2023-03-21T00:49:29.404Z,4.10
2023-03-21T00:52:08.581Z,3.67
2023-03-21T00:54:40.650Z,3.93
2023-03-21T00:57:08.520Z,3.53
2023-03-21T00:59:37.602Z,4.17
2023-03-21T01:02:07.521Z,3.73
2023-03-21T01:04:37.029Z,3.27
2023-03-21T01:07:10.658Z,3.23
2023-03-21T01:09:39.471Z,3.87
2023-03-21T01:12:07.559Z,3.70
2023-03-21T01:14:36.720Z,3.67
2023-03-21T01:17:05.791Z,3.80
2023-03-21T01:19:48.644Z,4.37
2023-03-21T01:22:22.683Z,3.50
2023-03-21T01:24:55.390Z,3.77
2023-03-21T01:27:26.259Z,4.47
2023-03-21T01:29:57.826Z,3.47
2023-03-21T01:32:26.574Z,4.10
2023-03-21T01:34:54.682Z,3.20
2023-03-21T01:37:22.771Z,3.43
2023-03-21T01:39:56.660Z,3.67
2023-03-21T01:42:26.413Z,3.80
2023-03-21T01:44:59.005Z,3.70
2023-03-21T01:47:27.746Z,4.53
2023-03-21T01:49:57.706Z,3.73
2023-03-21T01:52:37.042Z,3.87
2023-03-21T01:55:11.876Z,3.70
2023-03-21T01:57:58.248Z,3.50
2023-03-21T02:00:34.531Z,3.80
2023-03-21T02:03:15.110Z,3.87
2023-03-21T02:05:52.629Z,3.87
2023-03-21T02:08:25.853Z,4.10
2023-03-21T02:11:01.502Z,3.80
2023-03-21T02:13:29.322Z,3.40
2023-03-21T02:16:02.548Z,4.27
2023-03-21T02:18:39.681Z,3.87
2023-03-21T02:21:29.973Z,4.33
2023-03-21T02:24:34.489Z,4.27
2023-03-21T02:27:13.790Z,4.30
2023-03-21T02:30:17.455Z,4.30
2023-03-21T02:33:05.277Z,4.33
2023-03-21T02:35:56.767Z,4.03
2023-03-21T02:38:31.925Z,3.60
2023-03-21T02:41:13.232Z,4.83
2023-03-21T02:43:51.260Z,4.23
2023-03-21T02:46:24.390Z,4.20
2023-03-21T02:48:58.922Z,3.43
2023-03-21T02:51:28.854Z,4.10
2023-03-21T02:54:26.367Z,4.93
2023-03-21T02:56:54.487Z,4.77
2023-03-21T02:59:25.100Z,3.60
2023-03-21T03:01:54.074Z,3.40
2023-03-21T03:04:23.880Z,4.93
2023-03-21T03:07:12.528Z,3.67
2023-03-21T03:10:00.803Z,3.80
2023-03-21T03:12:41.179Z,4.37
2023-03-21T03:15:17.809Z,4.17
2023-03-21T03:17:52.926Z,3.67
2023-03-21T03:20:27.092Z,4.10
2023-03-21T03:23:00.587Z,5.53
2023-03-21T03:25:42.980Z,3.70
2023-03-21T03:28:14.496Z,3.80
2023-03-21T03:30:57.113Z,4.17
2023-03-21T03:33:30.895Z,4.47
2023-03-21T03:36:06.774Z,4.13
2023-03-21T03:38:37.916Z,4.10
2023-03-21T03:41:14.823Z,4.37
2023-03-21T03:43:50.829Z,4.13
2023-03-21T03:46:24.025Z,4.37
2023-03-21T03:48:56.056Z,3.97
2023-03-21T03:51:28.555Z,4.17
2023-03-21T03:53:59.628Z,4.00
2023-03-21T03:56:29.828Z,3.70
2023-03-21T03:58:58.321Z,4.30
2023-03-21T04:01:26.598Z,4.40
2023-03-21T04:04:06.791Z,4.23
2023-03-21T04:06:38.515Z,4.30
2023-03-21T04:09:19.199Z,4.63
2023-03-21T04:11:49.923Z,4.60
2023-03-21T04:14:17.916Z,3.73
2023-03-21T04:16:45.660Z,4.70
2023-03-21T04:19:13.803Z,4.53
2023-03-21T04:21:41.607Z,4.77
2023-03-21T04:24:12.164Z,4.13
2023-03-21T04:26:40.028Z,4.17
2023-03-21T04:29:09.175Z,5.13
2023-03-21T04:31:37.097Z,4.37
2023-03-21T04:34:09.765Z,4.10
2023-03-21T04:36:42.630Z,4.63
2023-03-21T04:39:12.537Z,4.50
2023-03-21T04:41:41.013Z,4.70
2023-03-21T04:44:11.778Z,4.33
2023-03-21T04:46:40.484Z,5.03
2023-03-21T04:49:08.740Z,4.27
2023-03-21T04:51:37.581Z,4.57
2023-03-21T04:54:05.820Z,4.87
2023-03-21T04:56:35.596Z,4.03
2023-03-21T04:59:08.013Z,3.73
2023-03-21T05:01:37.347Z,4.17
2023-03-21T05:04:06.311Z,4.10
2023-03-21T05:06:34.780Z,4.17
2023-03-21T05:09:05.596Z,4.03
2023-03-21T05:11:37.901Z,4.17
2023-03-21T05:14:06.516Z,4.10
2023-03-21T05:16:34.780Z,4.40
2023-03-21T05:19:05.096Z,4.33
2023-03-21T05:21:41.577Z,4.70
2023-03-21T05:24:12.136Z,4.03
2023-03-21T05:26:40.762Z,4.83
2023-03-21T05:29:09.435Z,4.30
2023-03-21T05:31:37.505Z,3.90
2023-03-21T05:34:06.697Z,3.90
2023-03-21T05:36:36.293Z,4.00
2023-03-21T05:39:04.640Z,3.80
2023-03-21T05:41:32.704Z,4.63
2023-03-21T05:44:00.705Z,3.50
2023-03-21T05:46:28.674Z,3.83
2023-03-21T05:48:56.510Z,3.37
2023-03-21T05:51:26.081Z,4.13
2023-03-21T05:53:53.863Z,3.93
2023-03-21T05:56:21.624Z,3.70
2023-03-21T05:58:49.498Z,3.47
2023-03-21T06:01:17.383Z,3.73
2023-03-21T06:03:45.535Z,3.70
2023-03-21T06:06:13.313Z,4.90
2023-03-21T06:08:42.419Z,4.03
2023-03-21T06:11:17.181Z,3.60
2023-03-21T06:13:44.928Z,3.67
2023-03-21T06:16:12.826Z,3.70
2023-03-21T06:18:40.696Z,4.10
2023-03-21T06:21:08.637Z,4.30
2023-03-21T06:23:37.423Z,4.30
2023-03-21T06:26:07.331Z,4.50
2023-03-21T06:28:35.284Z,3.93
2023-03-21T06:31:03.432Z,3.83
2023-03-21T06:33:31.465Z,4.23
2023-03-21T06:36:00.351Z,4.23
2023-03-21T06:38:28.173Z,4.20
2023-03-21T06:40:56.054Z,4.43
2023-03-21T06:43:25.443Z,4.10
2023-03-21T06:45:53.277Z,4.73
2023-03-21T06:48:21.180Z,4.30
2023-03-21T06:50:50.195Z,4.97
2023-03-21T06:53:18.466Z,4.33
2023-03-21T06:55:50.967Z,5.07
2023-03-21T06:58:19.100Z,4.63
2023-03-21T07:00:48.421Z,4.37
2023-03-21T07:03:17.035Z,4.50
2023-03-21T07:05:44.799Z,4.80
2023-03-21T07:08:14.017Z,4.67
2023-03-21T07:10:44.293Z,5.17
2023-03-21T07:13:13.588Z,4.97
2023-03-21T07:15:41.721Z,4.13
2023-03-21T07:18:11.277Z,4.80
2023-03-21T07:20:39.316Z,4.53
2023-03-21T07:23:07.431Z,4.67
2023-03-21T07:25:36.223Z,5.50
2023-03-21T07:28:06.361Z,5.07
2023-03-21T07:30:34.420Z,5.20
2023-03-21T07:33:05.822Z,4.50
2023-03-21T07:35:36.494Z,4.93
2023-03-21T07:38:04.539Z,5.03
2023-03-21T07:40:32.722Z,5.23
2023-03-21T07:45:33.225Z,6.13
2023-03-21T07:48:01.577Z,5.47
2023-03-21T07:50:29.416Z,6.83
2023-03-21T07:52:58.499Z,6.00
2023-03-21T07:55:26.449Z,5.47
2023-03-21T07:57:54.787Z,5.40
2023-03-21T08:00:24.002Z,5.70
2023-03-21T08:02:57.930Z,5.27
2023-03-21T08:05:31.627Z,4.70
2023-03-21T08:08:01.016Z,4.93
2023-03-21T08:10:29.700Z,5.03
2023-03-21T08:12:57.548Z,5.63
2023-03-21T08:15:25.490Z,5.43
2023-03-21T08:17:53.301Z,4.90
2023-03-21T08:20:23.444Z,5.30
2023-03-21T08:22:51.929Z,5.30
2023-03-21T08:25:22.692Z,4.90
2023-03-21T08:27:51.683Z,3.70
2023-03-21T08:30:22.413Z,5.07
2023-03-21T08:32:50.963Z,4.67
2023-03-21T08:35:20.434Z,4.27
2023-03-21T08:37:48.770Z,5.33
2023-03-21T08:40:21.529Z,4.50
2023-03-21T08:42:49.399Z,3.90
2023-03-21T08:45:18.675Z,4.43
2023-03-21T08:47:46.976Z,4.80
2023-03-21T08:50:17.297Z,4.50
2023-03-21T08:52:45.400Z,5.10
2023-03-21T08:55:14.885Z,5.10
2023-03-21T08:57:44.624Z,5.53
2023-03-21T09:00:17.725Z,5.73
2023-03-21T09:02:46.797Z,5.23
2023-03-21T09:05:15.492Z,5.47
2023-03-21T09:07:44.126Z,6.03
2023-03-21T09:10:21.163Z,5.73
2023-03-21T09:12:53.454Z,5.80
2023-03-21T09:15:24.091Z,5.73
2023-03-21T09:17:54.244Z,5.37
2023-03-21T09:20:31.053Z,5.43
2023-03-21T09:22:59.810Z,6.20
2023-03-21T09:25:29.442Z,6.17
2023-03-21T09:27:58.876Z,5.53
2023-03-21T09:30:27.138Z,5.30
2023-03-21T09:32:55.602Z,5.50
2023-03-21T09:35:38.180Z,5.47
2023-03-21T09:38:09.348Z,4.37
2023-03-21T09:40:54.759Z,5.20
2023-03-21T09:43:49.783Z,5.20
2023-03-21T09:46:31.088Z,5.00
2023-03-21T09:49:10.129Z,4.87
2023-03-21T09:52:01.998Z,3.93
2023-03-21T09:54:35.565Z,4.57
2023-03-21T09:57:14.985Z,5.17
2023-03-21T09:59:44.877Z,4.77
2023-03-21T10:02:32.215Z,5.20
2023-03-21T10:05:00.988Z,4.27
2023-03-21T10:07:33.104Z,4.77
2023-03-21T10:10:03.355Z,4.27
2023-03-21T10:12:31.332Z,4.30
2023-03-21T10:15:05.345Z,3.87
2023-03-21T10:17:40.867Z,3.77
2023-03-21T10:20:15.302Z,3.37
2023-03-21T10:22:44.609Z,4.67
2023-03-21T10:25:16.482Z,4.53
2023-03-21T10:27:44.606Z,4.50
2023-03-21T10:30:26.011Z,4.40
2023-03-21T10:32:53.903Z,3.53
2023-03-21T10:35:22.302Z,4.77
2023-03-21T10:37:50.265Z,3.83
2023-03-21T10:40:19.035Z,5.10
2023-03-21T10:42:46.802Z,4.57
2023-03-21T10:45:27.104Z,4.93
2023-03-21T10:47:55.533Z,3.97
2023-03-21T10:50:26.613Z,4.30
2023-03-21T10:53:00.568Z,4.13
2023-03-21T10:55:31.138Z,5.07
2023-03-21T10:58:02.890Z,5.07
2023-03-21T11:00:38.489Z,5.43
2023-03-21T11:03:06.927Z,4.97
2023-03-21T11:05:37.658Z,4.23
2023-03-21T11:08:07.812Z,5.93
2023-03-21T11:10:37.991Z,5.50
2023-03-21T11:13:09.072Z,5.07
2023-03-21T11:15:43.603Z,5.20
2023-03-21T11:18:21.683Z,4.90
2023-03-21T11:20:55.531Z,4.03
2023-03-21T11:23:29.321Z,4.00
2023-03-21T11:26:00.371Z,4.57
2023-03-21T11:28:35.385Z,4.87
2023-03-21T11:31:06.827Z,4.77
2023-03-21T11:33:38.701Z,4.93
2023-03-21T11:36:09.264Z,4.60
2023-03-21T11:38:39.709Z,5.00
2023-03-21T11:41:08.577Z,4.97
2023-03-21T11:43:38.260Z,4.90
2023-03-21T11:46:14.680Z,4.07
2023-03-21T11:48:45.231Z,4.77
2023-03-21T11:51:21.275Z,4.53
2023-03-21T11:53:57.617Z,4.13
2023-03-21T11:56:29.275Z,4.03
2023-03-21T11:59:13.538Z,3.97
2023-03-21T12:01:53.445Z,4.73
2023-03-21T12:04:32.868Z,3.63
2023-03-21T12:07:06.506Z,3.70
2023-03-21T12:09:42.687Z,4.17
2023-03-21T12:12:38.373Z,4.07
2023-03-21T12:15:14.472Z,3.33
2023-03-21T12:17:55.718Z,3.47
2023-03-21T12:20:37.556Z,4.03
2023-03-21T12:23:28.564Z,3.00
2023-03-21T12:26:07.599Z,2.43
2023-03-21T12:28:51.471Z,2.87
2023-03-21T12:31:26.422Z,2.93
2023-03-21T12:34:06.362Z,3.30
2023-03-21T12:36:48.008Z,3.33
2023-03-21T12:39:25.501Z,2.87
2023-03-21T12:42:20.625Z,2.43
2023-03-21T12:44:53.169Z,2.80
2023-03-21T12:47:25.134Z,2.63
2023-03-21T12:49:58.748Z,3.10
2023-03-21T12:52:30.187Z,2.47
2023-03-21T12:55:03.029Z,2.60
2023-03-21T12:57:35.614Z,2.60
2023-03-21T13:00:13.255Z,3.43
2023-03-21T13:02:45.507Z,2.90
2023-03-21T13:05:21.885Z,2.87
2023-03-21T13:07:55.685Z,3.37
2023-03-21T13:10:24.333Z,2.90
2023-03-21T13:13:05.424Z,2.43
2023-03-21T13:15:50.529Z,2.57
2023-03-21T13:18:28.499Z,2.47
2023-03-21T13:20:58.675Z,2.83
2023-03-21T13:23:33.928Z,2.23
2023-03-21T13:26:01.909Z,2.87
2023-03-21T13:28:31.338Z,2.60
2023-03-21T13:31:19.171Z,2.60
2023-03-21T13:33:49.346Z,2.63
2023-03-21T13:36:26.321Z,2.67
2023-03-21T13:39:01.524Z,2.90
2023-03-21T13:41:33.508Z,3.23
2023-03-21T13:44:17.338Z,2.57
2023-03-21T13:46:53.932Z,2.97
2023-03-21T13:49:31.901Z,2.80
2023-03-21T13:52:02.786Z,2.60
2023-03-21T13:54:50.995Z,2.93
2023-03-21T13:57:39.595Z,2.97
2023-03-21T14:00:24.191Z,2.70
2023-03-21T14:02:57.495Z,2.23
2023-03-21T14:05:27.253Z,2.83
2023-03-21T14:08:06.122Z,3.33
2023-03-21T14:10:41.574Z,2.60
2023-03-21T14:13:11.086Z,2.73
2023-03-21T14:15:53.153Z,2.60
2023-03-21T14:18:51.698Z,2.63
2023-03-21T14:21:23.609Z,2.27
2023-03-21T14:24:02.133Z,2.80
2023-03-21T14:26:33.592Z,2.50
2023-03-21T14:29:05.482Z,2.70
2023-03-21T14:31:36.303Z,2.10
2023-03-21T14:34:05.378Z,2.83
2023-03-21T14:36:43.204Z,2.80
2023-03-21T14:39:20.764Z,2.43
2023-03-21T14:41:50.867Z,2.93
2023-03-21T14:44:25.430Z,2.40
2023-03-21T14:47:02.343Z,2.17
2023-03-21T14:49:31.821Z,2.70
2023-03-21T14:52:02.152Z,2.60
2023-03-21T14:54:32.419Z,2.33
2023-03-21T14:57:03.510Z,2.60
2023-03-21T14:59:35.650Z,2.57
2023-03-21T15:02:08.388Z,2.53
2023-03-21T15:04:36.207Z,2.40
2023-03-21T15:07:05.230Z,2.60
2023-03-21T15:09:35.884Z,2.63
2023-03-21T15:12:09.767Z,2.63
2023-03-21T15:14:39.098Z,2.20
2023-03-21T15:17:09.334Z,2.17
2023-03-21T15:19:39.875Z,2.47
2023-03-21T15:22:14.540Z,3.00
2023-03-21T15:24:48.728Z,2.97
2023-03-21T15:27:19.026Z,2.30
2023-03-21T15:29:47.907Z,2.80
2023-03-21T15:32:18.716Z,2.60
2023-03-21T15:34:47.207Z,2.03
2023-03-21T15:37:18.869Z,2.10
2023-03-21T15:39:49.307Z,1.93
2023-03-21T15:42:29.963Z,1.97
2023-03-21T15:45:01.867Z,1.80
2023-03-21T15:47:44.084Z,1.93
2023-03-21T15:50:22.524Z,1.87
2023-03-21T15:52:54.374Z,1.90
2023-03-21T15:55:27.934Z,1.93
2023-03-21T15:58:01.287Z,1.97
2023-03-21T16:00:38.531Z,1.90
2023-03-21T16:03:11.785Z,1.60
2023-03-21T16:05:39.591Z,1.80
2023-03-21T16:08:20.267Z,1.70
2023-03-21T16:10:49.937Z,1.50
2023-03-21T16:13:17.753Z,1.77
2023-03-21T16:15:46.832Z,1.90
2023-03-21T16:18:17.078Z,1.93
2023-03-21T16:20:46.792Z,1.93
2023-03-21T16:23:17.274Z,1.53
2023-03-21T16:25:45.775Z,2.53
2023-03-21T16:28:17.530Z,2.00
2023-03-21T16:30:45.989Z,1.93
2023-03-21T16:33:14.503Z,1.97
2023-03-21T16:35:42.978Z,1.67
2023-03-21T16:38:13.631Z,2.13
2023-03-21T16:40:43.434Z,1.90
2023-03-21T16:43:12.043Z,2.17
2023-03-21T16:45:41.303Z,1.73
2023-03-21T16:48:12.558Z,1.90
2023-03-21T16:50:42.718Z,2.13
2023-03-21T16:53:10.579Z,2.37
2023-03-21T16:55:39.036Z,2.10
2023-03-21T16:58:07.749Z,1.80
2023-03-21T17:00:37.638Z,2.10
2023-03-21T17:03:15.429Z,2.23
2023-03-21T17:05:43.375Z,2.30
2023-03-21T17:08:16.303Z,2.00
2023-03-21T17:10:44.200Z,2.37
2023-03-21T17:13:18.421Z,2.23
2023-03-21T17:15:46.284Z,2.57
2023-03-21T17:18:15.388Z,1.80
2023-03-21T17:20:44.016Z,2.33
2023-03-21T17:23:12.167Z,2.50
2023-03-21T17:25:40.213Z,2.27
2023-03-21T17:28:08.664Z,2.30
2023-03-21T17:30:40.092Z,2.33
2023-03-21T17:33:09.112Z,2.40
2023-03-21T17:35:38.710Z,2.63
2023-03-21T17:38:13.104Z,2.80
2023-03-21T17:40:41.223Z,3.00
2023-03-21T17:43:14.875Z,2.37
2023-03-21T17:45:43.232Z,2.40
2023-03-21T17:48:11.926Z,2.43
2023-03-21T17:50:43.335Z,2.40
2023-03-21T17:53:11.607Z,2.63
2023-03-21T17:55:40.868Z,2.63
2023-03-21T17:58:09.543Z,2.47
2023-03-21T18:00:38.624Z,2.70
2023-03-21T18:03:09.005Z,2.23
2023-03-21T18:05:37.806Z,2.90
2023-03-21T18:08:11.939Z,2.47
2023-03-21T18:10:42.949Z,2.73
2023-03-21T18:13:12.139Z,2.40
2023-03-21T18:15:44.232Z,2.27
2023-03-21T18:18:13.001Z,2.97
2023-03-21T18:21:00.938Z,2.33
2023-03-21T18:23:32.333Z,2.50
2023-03-21T18:26:00.499Z,2.43
2023-03-21T18:28:28.780Z,2.70
2023-03-21T18:31:16.955Z,2.70
2023-03-21T18:33:45.919Z,2.83
2023-03-21T18:36:24.113Z,2.53
2023-03-21T18:38:55.560Z,2.70
2023-03-21T18:41:23.797Z,3.10
2023-03-21T18:44:05.300Z,2.73
2023-03-21T18:46:37.940Z,2.60
2023-03-21T18:49:56.152Z,2.60
2023-03-21T18:51:57.653Z,3.07
2023-03-21T18:54:28.188Z,2.87
2023-03-21T18:59:44.875Z,3.10
2023-03-21T19:02:18.877Z,2.77
2023-03-21T19:04:46.903Z,3.10
2023-03-21T19:07:15.420Z,2.23
2023-03-21T19:10:13.882Z,2.77
2023-03-21T19:12:34.249Z,2.63
2023-03-21T19:15:02.055Z,2.40
2023-03-21T19:20:19.401Z,2.90
2023-03-21T19:22:47.655Z,2.33
2023-03-21T19:25:17.316Z,2.33
2023-03-21T19:27:45.706Z,3.27
2023-03-21T19:30:16.085Z,2.37
2023-03-21T19:32:46.209Z,2.20
2023-03-21T19:35:14.610Z,2.80
2023-03-21T19:37:42.467Z,2.67
2023-03-21T19:40:11.173Z,2.47
2023-03-21T19:42:40.515Z,2.37
2023-03-21T19:45:10.083Z,3.13
2023-03-21T19:47:37.984Z,2.60
2023-03-21T19:50:45.606Z,1.60
2023-03-21T19:52:54.820Z,2.23
2023-03-21T19:55:22.834Z,2.03
2023-03-21T19:57:53.623Z,2.70
2023-03-21T20:00:22.009Z,2.63
2023-03-21T20:02:50.960Z,2.27
2023-03-21T20:05:20.419Z,2.37
2023-03-21T20:07:48.698Z,2.57
2023-03-21T20:10:16.645Z,2.53
2023-03-21T20:12:44.444Z,2.20
2023-03-21T20:15:20.787Z,2.17
2023-03-21T20:17:50.262Z,2.10
2023-03-21T20:20:19.088Z,2.20
2023-03-21T20:23:07.977Z,2.30
2023-03-21T20:25:36.622Z,1.83
2023-03-21T20:28:26.056Z,2.43
2023-03-21T20:30:56.776Z,2.23
2023-03-21T20:33:30.592Z,2.53
2023-03-21T20:38:51.065Z,2.47
2023-03-21T20:41:19.087Z,2.30
2023-03-21T20:44:28.496Z,1.80
2023-03-21T20:46:37.701Z,1.80
2023-03-21T20:49:07.241Z,2.27
2023-03-21T20:54:27.578Z,2.50
2023-03-21T20:56:56.941Z,2.30
2023-03-21T20:59:28.021Z,2.40
2023-03-21T21:01:59.440Z,2.03
2023-03-21T21:04:52.832Z,2.63
2023-03-21T21:07:21.130Z,2.63
2023-03-21T21:09:54.673Z,2.17
2023-03-21T21:12:27.385Z,2.30
2023-03-21T21:14:56.113Z,2.57
2023-03-21T21:18:03.972Z,2.50
2023-03-21T21:20:16.791Z,1.83
2023-03-21T21:22:58.210Z,2.40
2023-03-21T21:25:27.434Z,2.50
2023-03-21T21:27:55.335Z,2.20
2023-03-21T21:30:24.619Z,2.30
2023-03-21T21:32:55.362Z,1.90
2023-03-21T21:35:23.174Z,3.00
2023-03-21T21:37:51.803Z,1.90
2023-03-21T21:40:23.357Z,1.80
2023-03-21T21:42:51.493Z,2.40
2023-03-21T21:45:20.327Z,1.83
2023-03-21T21:47:48.257Z,2.00
2023-03-21T21:50:17.581Z,1.73
2023-03-21T21:52:52.604Z,2.00
2023-03-21T21:55:23.037Z,2.43
2023-03-21T21:57:51.349Z,2.13
2023-03-21T22:00:20.633Z,2.63
2023-03-21T22:02:48.901Z,1.77
2023-03-21T22:05:18.989Z,2.07
2023-03-21T22:07:47.055Z,1.70
2023-03-21T22:10:18.050Z,2.10
2023-03-21T22:12:48.197Z,2.00
2023-03-21T22:15:18.171Z,1.70
2023-03-21T22:17:47.396Z,2.13
2023-03-21T22:20:18.101Z,1.87
2023-03-21T22:22:50.135Z,2.03
2023-03-21T22:25:18.719Z,1.53
2023-03-21T22:27:47.177Z,1.80
2023-03-21T22:30:17.245Z,2.03
2023-03-21T22:33:08.084Z,1.97
2023-03-21T22:35:37.088Z,1.93
2023-03-21T22:38:06.403Z,2.27
2023-03-21T22:40:34.166Z,2.07
2023-03-21T22:43:02.000Z,2.17
2023-03-21T22:45:29.791Z,2.50
2023-03-21T22:47:59.941Z,2.13
2023-03-21T22:50:28.134Z,1.97
2023-03-21T22:52:55.999Z,1.43
2023-03-21T22:55:25.122Z,1.93
2023-03-21T22:57:52.875Z,2.03
2023-03-21T23:00:20.974Z,1.80
2023-03-21T23:02:48.813Z,2.07
2023-03-21T23:05:16.938Z,1.87
2023-03-21T23:07:45.253Z,2.30
2023-03-21T23:10:13.241Z,1.73
2023-03-21T23:12:42.556Z,1.83
2023-03-21T23:15:11.692Z,1.83
2023-03-21T23:17:39.747Z,2.20
2023-03-21T23:20:09.798Z,1.90
2023-03-21T23:22:38.421Z,2.03
2023-03-21T23:25:07.554Z,2.40
2023-03-21T23:27:36.169Z,2.87
2023-03-21T23:30:07.220Z,2.00
2023-03-21T23:32:35.323Z,2.50
2023-03-21T23:35:03.495Z,2.10
2023-03-21T23:37:31.363Z,2.07
2023-03-21T23:39:59.125Z,2.40
2023-03-21T23:42:29.660Z,2.60
2023-03-21T23:44:57.439Z,2.47
2023-03-21T23:47:26.560Z,2.50
2023-03-21T23:49:54.405Z,2.77
2023-03-21T23:52:22.308Z,2.73
2023-03-21T23:54:50.542Z,2.53
2023-03-21T23:57:18.345Z,2.53
2023-03-21T23:59:47.110Z,2.87
